createdAt,value
2023-12-24T00:00:39.400Z,136.97
2023-12-24T00:01:39.420Z,138.57
2023-12-24T00:02:39.453Z,138.08
2023-12-24T00:03:39.187Z,138.80
2023-12-24T00:04:38.436Z,138.15
2023-12-24T00:05:39.381Z,137.39
2023-12-24T00:06:38.881Z,138.46
2023-12-24T00:07:39.234Z,138.40
2023-12-24T00:08:38.548Z,140.19
2023-12-24T00:09:38.424Z,141.85
2023-12-24T00:10:39.272Z,143.12
2023-12-24T00:11:38.344Z,141.79
2023-12-24T00:12:39.360Z,141.61
2023-12-24T00:13:38.309Z,141.74
2023-12-24T00:14:38.710Z,142.18
2023-12-24T00:15:39.210Z,142.34
2023-12-24T00:16:39.208Z,141.43
2023-12-24T00:17:38.281Z,141.84
2023-12-24T00:18:38.327Z,143.23
2023-12-24T00:19:39.135Z,141.46
2023-12-24T00:20:39.101Z,141.83
2023-12-24T00:21:38.924Z,141.70
2023-12-24T00:22:39.326Z,140.81
2023-12-24T00:23:39.148Z,140.88
2023-12-24T00:24:39.133Z,139.79
2023-12-24T00:25:38.211Z,139.95
2023-12-24T00:26:38.163Z,139.03
2023-12-24T00:27:40.074Z,138.93
2023-12-24T00:28:38.123Z,139.24
2023-12-24T00:29:38.204Z,138.14
2023-12-24T00:30:39.199Z,137.32
2023-12-24T00:31:38.072Z,137.07
2023-12-24T00:32:38.172Z,136.96
2023-12-24T00:33:38.099Z,136.62
2023-12-24T00:34:38.093Z,135.21
2023-12-24T00:35:38.076Z,134.31
2023-12-24T00:36:38.002Z,135.52
2023-12-24T00:37:37.985Z,134.64
2023-12-24T00:38:38.917Z,134.13
2023-12-24T00:39:38.913Z,135.14
2023-12-24T00:40:37.955Z,136.04
2023-12-24T00:41:37.963Z,139.69
2023-12-24T00:42:38.038Z,140.27
2023-12-24T00:43:42.052Z,141.04
2023-12-24T00:44:38.177Z,142.62
2023-12-24T00:45:40.365Z,143.25
2023-12-24T00:46:39.104Z,143.84
2023-12-24T00:47:39.155Z,144.53
2023-12-24T00:48:38.991Z,144.64
2023-12-24T00:49:38.832Z,145.11
2023-12-24T00:50:38.754Z,144.18
2023-12-24T00:51:38.822Z,143.73
2023-12-24T00:52:39.043Z,144.06
2023-12-24T00:53:38.925Z,143.16
2023-12-24T00:54:38.107Z,142.63
2023-12-24T00:55:38.719Z,142.59
2023-12-24T00:56:38.766Z,143.49
2023-12-24T00:57:38.931Z,143.79
2023-12-24T00:58:37.743Z,144.10
2023-12-24T00:59:37.958Z,143.98
2023-12-24T01:00:37.872Z,143.91
2023-12-24T01:01:38.289Z,143.11
2023-12-24T01:14:43.257Z,134.79
2023-12-24T01:15:43.155Z,135.91
2023-12-24T01:16:43.193Z,136.60
2023-12-24T01:17:44.176Z,137.16
2023-12-24T01:18:43.204Z,138.61
2023-12-24T01:19:43.150Z,139.05
2023-12-24T01:20:44.100Z,138.59
2023-12-24T01:21:43.120Z,138.65
2023-12-24T01:22:44.037Z,138.86
2023-12-24T01:23:43.149Z,139.25
2023-12-24T01:24:43.097Z,140.48
2023-12-24T01:25:44.051Z,140.72
2023-12-24T01:26:44.018Z,140.67
2023-12-24T01:27:43.069Z,141.64
2023-12-24T01:28:43.057Z,140.89
2023-12-24T01:29:43.974Z,140.82
2023-12-24T01:30:44.009Z,141.34
2023-12-24T01:31:43.039Z,140.94
2023-12-24T01:32:44.096Z,139.29
2023-12-24T01:33:43.212Z,140.23
2023-12-24T01:34:42.982Z,139.41
2023-12-24T01:35:43.040Z,140.13
2023-12-24T01:36:43.897Z,140.40
2023-12-24T01:37:42.978Z,140.39
2023-12-24T01:38:42.932Z,139.53
2023-12-24T01:39:42.898Z,140.98
2023-12-24T01:40:42.890Z,142.19
2023-12-24T01:41:43.937Z,141.94
2023-12-24T01:42:43.827Z,141.98
2023-12-24T01:43:42.866Z,142.55
2023-12-24T01:44:42.877Z,143.67
2023-12-24T01:45:42.822Z,143.91
2023-12-24T01:46:42.833Z,143.48
2023-12-24T01:47:42.945Z,143.78
2023-12-24T01:48:42.862Z,142.84
2023-12-24T01:49:42.804Z,143.04
2023-12-24T01:50:42.903Z,142.95
2023-12-24T01:51:42.800Z,142.02
2023-12-24T01:52:42.748Z,141.88
2023-12-24T01:53:42.726Z,141.59
2023-12-24T01:54:42.753Z,141.23
2023-12-24T01:55:43.708Z,141.27
2023-12-24T01:56:42.747Z,141.93
2023-12-24T01:57:43.676Z,141.43
2023-12-24T01:58:43.658Z,142.10
2023-12-24T01:59:42.677Z,140.99
2023-12-24T02:00:43.640Z,143.15
2023-12-24T02:01:43.627Z,143.07
2023-12-24T02:02:42.684Z,143.53
2023-12-24T02:03:43.647Z,145.53
2023-12-24T02:04:42.689Z,144.66
2023-12-24T02:05:43.675Z,144.68
2023-12-24T02:06:42.610Z,145.94
2023-12-24T02:07:42.578Z,145.49
2023-12-24T02:08:42.674Z,145.91
2023-12-24T02:09:43.699Z,144.58
2023-12-24T02:10:45.579Z,144.09
2023-12-24T02:11:44.070Z,144.07
2023-12-24T02:12:43.582Z,143.96
2023-12-24T02:13:44.808Z,143.91
2023-12-24T02:14:43.704Z,142.73
2023-12-24T02:15:43.960Z,143.07
2023-12-24T02:16:44.653Z,143.97
2023-12-24T02:17:44.320Z,143.41
2023-12-24T02:18:44.688Z,142.24
2023-12-24T02:19:44.715Z,141.80
2023-12-24T02:20:44.138Z,142.52
2023-12-24T02:21:43.445Z,142.88
2023-12-24T02:22:43.492Z,143.16
2023-12-24T02:23:43.351Z,143.28
2023-12-24T02:24:43.866Z,142.92
2023-12-24T02:25:43.524Z,142.41
2023-12-24T02:26:43.430Z,142.60
2023-12-24T02:27:42.962Z,141.66
2023-12-24T02:28:43.858Z,143.72
2023-12-24T02:29:44.433Z,144.10
2023-12-24T02:30:42.315Z,142.81
2023-12-24T02:31:43.466Z,143.76
2023-12-24T02:32:46.072Z,143.06
2023-12-24T02:33:43.868Z,142.25
2023-12-24T02:34:43.352Z,142.11
2023-12-24T02:35:44.420Z,142.37
2023-12-24T02:36:42.872Z,141.64
2023-12-24T02:37:42.309Z,142.00
2023-12-24T02:38:42.259Z,142.27
2023-12-24T02:39:42.180Z,141.66
2023-12-24T02:40:42.185Z,140.62
2023-12-24T02:41:42.192Z,140.15
2023-12-24T02:42:42.180Z,141.81
2023-12-24T02:43:42.152Z,141.88
2023-12-24T02:44:42.138Z,141.95
2023-12-24T02:45:42.127Z,142.47
2023-12-24T02:46:42.134Z,143.32
2023-12-24T02:47:42.265Z,143.24
2023-12-24T02:48:42.508Z,143.42
2023-12-24T02:49:42.085Z,142.34
2023-12-24T02:50:42.119Z,142.88
2023-12-24T02:51:42.110Z,143.78
2023-12-24T02:52:42.102Z,144.94
2023-12-24T02:53:42.187Z,144.67
2023-12-24T02:54:42.039Z,147.12
2023-12-24T02:55:42.018Z,147.11
2023-12-24T02:56:42.059Z,148.05
2023-12-24T02:57:42.321Z,147.42
2023-12-24T02:58:42.546Z,148.11
2023-12-24T02:59:42.042Z,147.96
2023-12-24T03:00:41.992Z,147.96
2023-12-24T03:01:43.690Z,147.92
2023-12-24T03:02:44.801Z,147.46
2023-12-24T03:03:41.980Z,148.27
2023-12-24T03:04:41.918Z,149.78
2023-12-24T03:05:42.005Z,148.87
2023-12-24T03:06:42.008Z,150.10
2023-12-24T03:07:41.887Z,149.43
2023-12-24T03:08:42.704Z,150.20
2023-12-24T03:09:41.861Z,150.18
2023-12-24T03:10:41.871Z,149.29
2023-12-24T03:11:41.857Z,149.30
2023-12-24T03:12:41.893Z,148.72
2023-12-24T03:13:41.805Z,149.72
2023-12-24T03:14:41.804Z,150.60
2023-12-24T03:15:41.800Z,150.15
2023-12-24T03:16:41.776Z,150.90
2023-12-24T03:17:41.890Z,151.19
2023-12-24T03:18:41.936Z,150.68
2023-12-24T03:19:41.741Z,150.56
2023-12-24T03:20:41.829Z,150.29
2023-12-24T03:21:41.803Z,150.61
2023-12-24T03:22:42.638Z,150.90
2023-12-24T03:23:41.664Z,151.28
2023-12-24T03:24:41.677Z,151.53
2023-12-24T03:25:41.689Z,150.40
2023-12-24T03:26:41.652Z,150.07
2023-12-24T03:27:42.080Z,149.92
2023-12-24T03:28:42.184Z,151.16
2023-12-24T03:29:41.677Z,150.69
2023-12-24T03:30:41.653Z,151.42
2023-12-24T03:31:41.601Z,151.45
2023-12-24T03:32:41.664Z,152.61
2023-12-24T03:33:41.646Z,151.83
2023-12-24T03:34:41.561Z,151.80
2023-12-24T03:35:41.558Z,153.52
2023-12-24T03:36:41.561Z,153.01
2023-12-24T03:37:41.838Z,153.40
2023-12-24T03:38:41.979Z,152.64
2023-12-24T03:39:41.544Z,152.56
2023-12-24T03:40:41.478Z,152.58
2023-12-24T03:41:41.521Z,153.55
2023-12-24T03:42:41.467Z,152.51
2023-12-24T03:43:41.465Z,151.80
2023-12-24T03:44:41.494Z,151.82
2023-12-24T03:45:41.418Z,151.17
2023-12-24T03:46:41.411Z,151.72
2023-12-24T03:47:42.526Z,151.14
2023-12-24T03:48:41.495Z,150.49
2023-12-24T03:49:41.390Z,151.94
2023-12-24T03:50:41.421Z,152.75
2023-12-24T03:51:41.345Z,152.99
2023-12-24T03:52:41.343Z,152.39
2023-12-24T03:53:41.513Z,151.81
2023-12-24T03:54:42.277Z,150.81
2023-12-24T03:55:41.309Z,151.39
2023-12-24T03:56:42.297Z,152.03
2023-12-24T03:57:42.279Z,150.71
2023-12-24T03:58:41.276Z,149.56
2023-12-24T03:59:41.338Z,149.36
2023-12-24T04:00:46.258Z,148.48
2023-12-24T04:01:41.354Z,147.73
2023-12-24T04:02:41.387Z,145.96
2023-12-24T04:03:41.240Z,144.71
2023-12-24T04:04:41.241Z,144.25
2023-12-24T04:05:42.293Z,144.70
2023-12-24T04:06:42.189Z,142.53
2023-12-24T04:07:41.178Z,142.03
2023-12-24T04:08:41.177Z,141.37
2023-12-24T04:09:41.144Z,140.21
2023-12-24T04:10:44.896Z,139.14
2023-12-24T04:11:41.246Z,137.11
2023-12-24T04:12:41.145Z,136.85
2023-12-24T04:13:41.104Z,136.10
2023-12-24T04:14:41.208Z,135.38
2023-12-24T04:15:42.865Z,134.31
2023-12-24T04:16:41.087Z,134.66
2023-12-24T04:17:41.140Z,134.49
2023-12-24T04:18:41.133Z,134.53
2023-12-24T04:19:41.311Z,132.98
2023-12-24T04:20:41.091Z,133.43
2023-12-24T04:21:41.965Z,132.31
2023-12-24T04:22:40.958Z,131.51
2023-12-24T04:23:40.997Z,130.98
2023-12-24T04:24:40.951Z,130.05
2023-12-24T04:25:40.994Z,129.72
2023-12-24T04:26:41.098Z,128.44
2023-12-24T04:27:40.939Z,128.89
2023-12-24T04:28:40.954Z,128.97
2023-12-24T04:29:40.948Z,129.37
2023-12-24T04:30:41.005Z,129.71
2023-12-24T04:31:41.842Z,130.49
2023-12-24T04:32:41.917Z,128.95
2023-12-24T04:33:41.914Z,127.50
2023-12-24T04:34:40.888Z,127.78
2023-12-24T04:35:41.240Z,127.20
2023-12-24T04:36:40.841Z,128.26
2023-12-24T04:37:41.769Z,127.13
2023-12-24T04:38:40.833Z,127.48
2023-12-24T04:39:40.824Z,126.10
2023-12-24T04:40:40.916Z,126.55
2023-12-24T04:41:41.802Z,127.32
2023-12-24T04:42:40.753Z,126.19
2023-12-24T04:43:40.782Z,126.16
2023-12-24T04:44:40.823Z,125.91
2023-12-24T04:45:41.698Z,125.85
2023-12-24T04:46:40.730Z,125.46
2023-12-24T04:47:40.783Z,125.35
2023-12-24T04:48:40.812Z,125.86
2023-12-24T04:49:41.647Z,126.05
2023-12-24T04:50:40.771Z,125.54
2023-12-24T04:51:40.652Z,126.23
2023-12-24T04:52:41.618Z,126.69
2023-12-24T04:53:42.588Z,127.23
2023-12-24T04:54:40.615Z,126.21
2023-12-24T04:55:40.621Z,125.86
2023-12-24T04:56:40.664Z,125.18
2023-12-24T04:57:40.587Z,124.94
2023-12-24T04:58:40.680Z,125.44
2023-12-24T04:59:40.621Z,124.62
2023-12-24T05:00:44.331Z,124.07
2023-12-24T05:01:40.547Z,124.38
2023-12-24T05:02:40.624Z,125.08
2023-12-24T05:03:40.524Z,123.76
2023-12-24T05:04:40.567Z,122.50
2023-12-24T05:05:40.622Z,123.08
2023-12-24T05:06:40.469Z,123.57
2023-12-24T05:07:40.484Z,123.35
2023-12-24T05:08:40.611Z,123.27
2023-12-24T05:09:41.923Z,122.23
2023-12-24T05:10:40.431Z,122.05
2023-12-24T05:11:40.537Z,121.93
2023-12-24T05:12:40.433Z,121.48
2023-12-24T05:13:40.679Z,121.98
2023-12-24T05:14:40.452Z,121.64
2023-12-24T05:15:40.375Z,121.55
2023-12-24T05:16:40.351Z,120.96
2023-12-24T05:17:40.429Z,121.37
2023-12-24T05:18:40.408Z,121.88
2023-12-24T05:19:40.344Z,122.24
2023-12-24T05:20:40.392Z,123.64
2023-12-24T05:21:40.313Z,123.14
2023-12-24T05:22:41.227Z,122.69
2023-12-24T05:23:40.360Z,122.63
2023-12-24T05:24:40.264Z,122.77
2023-12-24T05:25:40.290Z,123.78
2023-12-24T05:26:40.336Z,122.88
2023-12-24T05:27:40.250Z,122.97
2023-12-24T05:28:40.214Z,123.76
2023-12-24T05:29:40.226Z,121.83
2023-12-24T05:30:40.270Z,122.99
2023-12-24T05:31:40.230Z,122.74
2023-12-24T05:32:40.353Z,121.07
2023-12-24T05:33:40.249Z,121.95
2023-12-24T05:34:40.208Z,122.04
2023-12-24T05:35:40.195Z,122.74
2023-12-24T05:36:40.184Z,124.03
2023-12-24T05:37:40.168Z,122.48
2023-12-24T05:38:40.927Z,122.18
2023-12-24T05:39:40.108Z,121.39
2023-12-24T05:40:40.108Z,122.21
2023-12-24T05:41:40.200Z,125.16
2023-12-24T05:42:40.082Z,125.88
2023-12-24T05:43:40.102Z,125.71
2023-12-24T05:44:40.118Z,125.11
2023-12-24T05:45:40.048Z,125.60
2023-12-24T05:46:40.374Z,124.83
2023-12-24T05:47:40.111Z,124.75
2023-12-24T05:48:40.113Z,123.63
2023-12-24T05:49:40.114Z,124.64
2023-12-24T05:50:40.270Z,124.96
2023-12-24T05:51:39.980Z,124.48
2023-12-24T05:52:39.934Z,124.12
2023-12-24T05:53:40.121Z,124.02
2023-12-24T05:54:40.633Z,124.73
2023-12-24T05:55:39.884Z,124.99
2023-12-24T05:56:40.006Z,123.82
2023-12-24T05:57:39.910Z,124.47
2023-12-24T05:58:39.887Z,124.74
2023-12-24T05:59:39.909Z,124.84
2023-12-24T06:00:44.909Z,125.39
2023-12-24T06:01:39.817Z,125.25
2023-12-24T06:02:40.216Z,124.52
2023-12-24T06:03:39.961Z,124.49
2023-12-24T06:04:39.814Z,123.20
2023-12-24T06:05:39.889Z,123.44
2023-12-24T06:06:40.067Z,123.93
2023-12-24T06:07:39.794Z,123.19
2023-12-24T06:08:40.042Z,123.31
2023-12-24T06:09:39.756Z,124.77
2023-12-24T06:10:40.020Z,125.33
2023-12-24T06:11:39.781Z,123.88
2023-12-24T06:12:39.709Z,124.14
2023-12-24T06:13:39.792Z,123.03
2023-12-24T06:14:39.804Z,123.78
2023-12-24T06:15:39.732Z,122.46
2023-12-24T06:16:39.729Z,121.87
2023-12-24T06:17:39.931Z,121.91
2023-12-24T06:18:41.876Z,121.89
2023-12-24T06:19:39.737Z,121.40
2023-12-24T06:20:40.610Z,121.17
2023-12-24T06:21:40.557Z,120.92
2023-12-24T06:22:40.566Z,121.00
2023-12-24T06:23:39.725Z,121.04
2023-12-24T06:24:39.644Z,121.06
2023-12-24T06:25:41.219Z,119.33
2023-12-24T06:26:40.038Z,118.53
2023-12-24T06:27:39.573Z,119.13
2023-12-24T06:28:40.358Z,118.81
2023-12-24T06:29:42.408Z,118.96
2023-12-24T06:30:39.574Z,118.84
2023-12-24T06:31:39.492Z,118.68
2023-12-24T06:32:40.437Z,118.98
2023-12-24T06:33:39.569Z,119.83
2023-12-24T06:34:42.457Z,120.16
2023-12-24T06:35:39.550Z,120.01
2023-12-24T06:36:39.438Z,119.29
2023-12-24T06:37:39.436Z,119.77
2023-12-24T06:38:40.450Z,119.59
2023-12-24T06:39:39.493Z,119.89
2023-12-24T06:40:39.401Z,119.62
2023-12-24T06:41:39.428Z,120.59
2023-12-24T06:42:39.669Z,120.22
2023-12-24T06:43:39.392Z,120.31
2023-12-24T06:44:39.501Z,121.51
2023-12-24T06:45:39.360Z,122.82
2023-12-24T06:46:39.322Z,122.78
2023-12-24T06:47:40.397Z,123.50
2023-12-24T06:48:39.427Z,125.25
2023-12-24T06:49:39.339Z,125.90
2023-12-24T06:50:40.403Z,125.56
2023-12-24T06:51:39.279Z,127.18
2023-12-24T06:52:39.523Z,126.71
2023-12-24T06:53:39.563Z,127.16
2023-12-24T06:54:39.243Z,126.72
2023-12-24T06:55:39.293Z,129.58
2023-12-24T06:56:40.292Z,130.11
2023-12-24T06:57:39.230Z,131.05
2023-12-24T06:58:39.201Z,131.75
2023-12-24T06:59:39.546Z,130.89
2023-12-24T07:00:39.245Z,131.16
2023-12-24T07:01:40.995Z,131.69
2023-12-24T07:02:39.188Z,132.66
2023-12-24T07:03:39.184Z,133.67
2023-12-24T07:04:39.172Z,133.77
2023-12-24T07:05:39.194Z,134.66
2023-12-24T07:06:39.445Z,137.08
2023-12-24T07:07:39.087Z,140.90
2023-12-24T07:08:40.164Z,141.94
2023-12-24T07:09:39.055Z,141.82
2023-12-24T07:10:40.002Z,140.81
2023-12-24T07:11:40.354Z,139.98
2023-12-24T07:12:39.984Z,140.38
2023-12-24T07:13:39.826Z,138.69
2023-12-24T07:14:39.032Z,139.91
2023-12-24T07:15:40.069Z,139.01
2023-12-24T07:16:41.353Z,140.11
2023-12-24T07:17:40.073Z,141.05
2023-12-24T07:18:39.268Z,139.53
2023-12-24T07:19:40.231Z,140.22
2023-12-24T07:20:39.994Z,139.51
2023-12-24T07:21:39.004Z,138.91
2023-12-24T07:22:38.929Z,138.82
2023-12-24T07:23:39.079Z,139.04
2023-12-24T07:24:53.255Z,140.86
2023-12-24T07:25:39.933Z,140.97
2023-12-24T07:26:38.932Z,141.86
2023-12-24T07:27:39.151Z,141.56
2023-12-24T07:28:38.949Z,141.62
2023-12-24T07:29:38.876Z,141.68
2023-12-24T07:30:39.791Z,140.65
2023-12-24T07:31:39.777Z,141.91
2023-12-24T07:32:38.930Z,142.42
2023-12-24T07:33:38.835Z,142.94
2023-12-24T07:34:38.827Z,143.67
2023-12-24T07:35:39.749Z,144.09
2023-12-24T07:36:39.696Z,146.11
2023-12-24T07:37:38.720Z,146.40
2023-12-24T07:38:38.913Z,147.35
2023-12-24T07:39:38.824Z,147.53
2023-12-24T07:40:38.696Z,147.01
2023-12-24T07:41:41.571Z,146.37
2023-12-24T07:42:38.769Z,146.49
2023-12-24T07:43:39.543Z,146.73
2023-12-24T07:44:39.059Z,145.33
2023-12-24T07:45:38.680Z,146.78
2023-12-24T07:46:38.683Z,146.43
2023-12-24T07:47:40.312Z,145.91
2023-12-24T07:48:39.003Z,145.53
2023-12-24T07:49:39.529Z,145.61
2023-12-24T07:50:39.414Z,147.35
2023-12-24T07:51:39.478Z,146.27
2023-12-24T07:52:41.465Z,145.80
2023-12-24T07:53:39.980Z,147.63
2023-12-24T07:54:41.008Z,145.81
2023-12-24T07:55:38.553Z,147.79
2023-12-24T07:56:38.943Z,147.48
2023-12-24T07:57:38.496Z,145.44
2023-12-24T07:58:40.650Z,145.30
2023-12-24T07:59:39.866Z,144.36
2023-12-24T08:00:42.556Z,145.31
2023-12-24T08:01:39.296Z,146.48
2023-12-24T08:02:40.312Z,146.56
2023-12-24T08:03:38.506Z,147.04
2023-12-24T08:04:38.522Z,146.73
2023-12-24T08:05:39.511Z,145.69
2023-12-24T08:06:39.572Z,147.28
2023-12-24T08:07:38.422Z,146.72
2023-12-24T08:08:39.158Z,146.14
2023-12-24T08:09:39.564Z,147.75
2023-12-24T08:10:38.717Z,150.92
2023-12-24T08:11:38.995Z,151.22
2023-12-24T08:12:38.373Z,150.81
2023-12-24T08:13:38.959Z,151.33
2023-12-24T08:14:40.370Z,150.46
2023-12-24T08:15:39.489Z,149.45
2023-12-24T08:16:39.386Z,149.72
2023-12-24T08:17:38.403Z,152.18
2023-12-24T08:18:38.672Z,152.97
2023-12-24T08:19:40.698Z,153.78
2023-12-24T08:20:38.393Z,154.71
2023-12-24T08:21:40.458Z,153.60
2023-12-24T08:22:39.396Z,154.74
2023-12-24T08:23:42.467Z,157.36
2023-12-24T08:24:40.669Z,156.48
2023-12-24T08:25:39.824Z,157.73
2023-12-24T08:26:39.027Z,158.80
2023-12-24T08:27:42.326Z,159.34
2023-12-24T08:28:40.150Z,159.14
2023-12-24T08:29:42.913Z,158.75
2023-12-24T08:30:41.133Z,158.75
2023-12-24T08:31:39.806Z,160.23
2023-12-24T08:32:39.143Z,161.28
2023-12-24T08:33:42.542Z,161.07
2023-12-24T08:34:39.220Z,160.84
2023-12-24T08:35:38.594Z,159.93
2023-12-24T08:36:39.059Z,160.36
2023-12-24T08:38:54.714Z,159.23
2023-12-24T08:39:54.793Z,158.99
2023-12-24T08:40:55.625Z,158.95
2023-12-24T08:41:55.610Z,159.14
2023-12-24T08:42:54.858Z,159.87
2023-12-24T08:43:54.661Z,158.86
2023-12-24T08:44:54.609Z,159.65
2023-12-24T08:45:54.600Z,160.16
2023-12-24T08:48:05.886Z,160.26
2023-12-24T08:49:06.975Z,160.54
2023-12-24T08:50:06.120Z,161.18
2023-12-24T08:51:10.094Z,160.16
2023-12-24T08:52:05.677Z,160.36
2023-12-24T08:53:05.976Z,160.83
2023-12-24T08:54:05.625Z,160.33
2023-12-24T08:55:07.537Z,161.04
2023-12-24T08:56:05.922Z,161.54
2023-12-24T08:57:05.562Z,162.36
2023-12-24T08:58:05.571Z,163.34
2023-12-24T08:59:05.651Z,165.40
2023-12-24T09:00:05.974Z,164.75
2023-12-24T09:01:09.665Z,164.94
2023-12-24T09:02:06.576Z,164.76
2023-12-24T09:03:05.931Z,163.87
2023-12-24T09:04:05.542Z,164.84
2023-12-24T09:05:07.546Z,164.93
2023-12-24T09:06:05.654Z,163.61
2023-12-24T09:07:05.845Z,165.25
2023-12-24T09:08:05.516Z,163.37
2023-12-24T09:09:06.022Z,165.17
2023-12-24T09:10:05.566Z,164.08
2023-12-24T09:11:05.502Z,164.25
2023-12-24T09:12:05.429Z,163.84
2023-12-24T09:13:05.770Z,163.15
2023-12-24T09:14:05.475Z,163.70
2023-12-24T09:15:05.361Z,163.16
2023-12-24T09:16:05.417Z,163.73
2023-12-24T09:17:05.365Z,164.55
2023-12-24T09:18:05.767Z,164.27
2023-12-24T09:19:05.516Z,165.47
2023-12-24T09:20:07.081Z,164.80
2023-12-24T09:21:05.362Z,165.33
2023-12-24T09:22:05.281Z,166.55
2023-12-24T09:23:05.735Z,165.89
2023-12-24T09:24:05.360Z,166.12
2023-12-24T09:25:05.295Z,166.21
2023-12-24T09:26:05.263Z,166.23
2023-12-24T09:27:05.273Z,166.50
2023-12-24T09:28:05.244Z,166.46
2023-12-24T09:29:05.276Z,167.06
2023-12-24T09:30:05.472Z,167.17
2023-12-24T09:31:05.215Z,166.24
2023-12-24T09:32:05.607Z,168.44
2023-12-24T09:33:05.394Z,168.48
2023-12-24T09:34:05.307Z,168.45
2023-12-24T09:35:06.028Z,169.55
2023-12-24T09:36:05.416Z,169.45
2023-12-24T09:37:05.942Z,170.10
2023-12-24T09:38:05.145Z,170.35
2023-12-24T09:39:05.124Z,168.97
2023-12-24T09:40:05.435Z,169.40
2023-12-24T09:41:05.144Z,169.19
2023-12-24T09:42:06.356Z,168.14
2023-12-24T09:43:05.109Z,169.03
2023-12-24T09:44:05.051Z,168.93
2023-12-24T09:45:05.135Z,168.46
2023-12-24T09:46:05.016Z,169.17
2023-12-24T09:47:05.082Z,168.94
2023-12-24T09:48:05.101Z,169.51
2023-12-24T09:49:05.812Z,169.76
2023-12-24T09:50:05.048Z,170.36
2023-12-24T09:51:07.971Z,170.10
2023-12-24T09:52:06.943Z,171.40
2023-12-24T09:53:04.982Z,170.48
2023-12-24T09:56:07.134Z,169.73
2023-12-24T09:57:07.617Z,170.26
2023-12-24T09:58:06.255Z,171.16
2023-12-24T09:59:07.959Z,170.10
2023-12-24T10:00:06.202Z,169.76
2023-12-24T10:01:06.229Z,170.84
2023-12-24T10:02:06.181Z,170.76
2023-12-24T10:03:06.171Z,170.53
2023-12-24T10:04:07.095Z,171.74
2023-12-24T10:05:06.481Z,171.89
2023-12-24T10:06:06.273Z,171.16
2023-12-24T10:07:06.169Z,172.07
2023-12-24T10:08:06.119Z,171.97
2023-12-24T10:09:06.494Z,173.05
2023-12-24T10:10:06.094Z,172.60
2023-12-24T10:11:06.488Z,173.26
2023-12-24T10:12:06.037Z,173.71
2023-12-24T10:13:06.342Z,173.81
2023-12-24T10:14:06.139Z,174.25
2023-12-24T10:16:40.917Z,174.05
2023-12-24T10:17:41.394Z,175.47
2023-12-24T10:18:40.900Z,175.44
2023-12-24T10:19:43.676Z,175.07
2023-12-24T10:20:42.386Z,175.29
2023-12-24T10:21:40.825Z,174.99
2023-12-24T10:22:40.755Z,175.17
2023-12-24T10:23:40.840Z,175.68
2023-12-24T10:24:41.137Z,176.73
2023-12-24T10:25:42.049Z,176.12
2023-12-24T10:26:40.792Z,176.09
2023-12-24T10:27:40.708Z,175.97
2023-12-24T10:28:41.112Z,176.13
2023-12-24T10:29:40.778Z,175.91
2023-12-24T10:33:04.744Z,174.57
2023-12-24T10:35:18.003Z,175.52
2023-12-24T10:36:21.994Z,176.20
2023-12-24T10:37:20.767Z,177.00
2023-12-24T10:38:18.008Z,176.97
2023-12-24T10:39:17.905Z,177.10
2023-12-24T10:40:17.926Z,177.28
2023-12-24T10:41:17.949Z,177.62
2023-12-24T10:42:18.240Z,176.90
2023-12-24T10:43:19.734Z,176.80
2023-12-24T10:44:17.883Z,177.68
2023-12-24T10:45:19.177Z,177.55
2023-12-24T10:46:17.819Z,178.57
2023-12-24T10:47:17.874Z,178.16
2023-12-24T10:48:18.070Z,178.99
2023-12-24T10:49:17.852Z,179.38
2023-12-24T10:50:17.817Z,178.72
2023-12-24T10:51:20.581Z,179.30
2023-12-24T10:52:17.858Z,179.45
2023-12-24T10:53:18.103Z,179.77
2023-12-24T10:54:17.874Z,177.83
2023-12-24T10:55:18.499Z,178.65
2023-12-24T10:56:17.796Z,178.86
2023-12-24T10:57:17.709Z,178.96
2023-12-24T10:58:18.170Z,178.87
2023-12-24T11:00:57.644Z,177.51
2023-12-24T11:01:58.281Z,179.50
2023-12-24T11:02:56.084Z,180.63
2023-12-24T11:03:57.629Z,181.09
2023-12-24T11:04:56.106Z,180.45
2023-12-24T11:05:55.860Z,180.34
2023-12-24T11:06:56.459Z,181.70
2023-12-24T11:07:55.761Z,180.78
2023-12-24T11:08:57.035Z,180.84
2023-12-24T11:09:58.583Z,181.35
2023-12-24T11:10:56.724Z,182.32
2023-12-24T11:11:56.663Z,181.12
2023-12-24T11:13:02.453Z,182.12
2023-12-24T11:13:57.080Z,182.95
2023-12-24T11:14:58.506Z,183.59
2023-12-24T11:15:55.645Z,183.57
2023-12-24T11:16:57.528Z,182.77
2023-12-24T11:17:55.821Z,182.96
2023-12-24T11:18:56.643Z,183.43
2023-12-24T11:19:55.930Z,183.28
2023-12-24T11:20:55.720Z,184.13
2023-12-24T11:21:56.322Z,184.30
2023-12-24T11:22:56.517Z,185.82
2023-12-24T11:23:57.283Z,185.45
2023-12-24T11:24:55.912Z,185.88
2023-12-24T11:25:55.941Z,185.89
2023-12-24T11:27:17.538Z,186.90
2023-12-24T11:27:55.500Z,186.79
2023-12-24T11:33:45.049Z,184.01
2023-12-24T11:34:44.882Z,185.27
2023-12-24T11:35:44.841Z,185.03
2023-12-24T11:36:45.758Z,185.19
2023-12-24T11:37:44.882Z,184.96
2023-12-24T11:38:49.327Z,184.97
2023-12-24T11:39:48.755Z,185.86
2023-12-24T11:40:45.846Z,186.33
2023-12-24T11:41:45.810Z,186.79
2023-12-24T11:42:47.504Z,187.06
2023-12-24T11:43:44.770Z,186.05
2023-12-24T11:44:44.784Z,187.23
2023-12-24T11:45:45.695Z,187.14
2023-12-24T11:52:31.537Z,185.43
2023-12-24T11:53:29.619Z,186.95
2023-12-24T11:54:29.625Z,187.88
2023-12-24T11:55:29.896Z,187.34
2023-12-24T11:56:30.397Z,186.38
2023-12-24T11:57:29.815Z,186.69
2023-12-24T11:58:29.970Z,186.16
2023-12-24T11:59:30.292Z,186.80
2023-12-24T12:00:30.539Z,186.42
2023-12-24T12:01:29.511Z,186.49
2023-12-24T12:02:29.604Z,187.10
2023-12-24T12:03:29.619Z,186.55
2023-12-24T12:04:29.517Z,185.64
2023-12-24T12:05:29.591Z,186.84
2023-12-24T12:06:31.354Z,185.58
2023-12-24T12:07:29.447Z,186.27
2023-12-24T12:08:29.865Z,186.56
2023-12-24T12:09:30.020Z,186.75
2023-12-24T12:10:33.460Z,186.61
2023-12-24T12:11:29.414Z,186.72
2023-12-24T12:12:29.375Z,185.80
2023-12-24T12:13:29.646Z,186.25
2023-12-24T12:14:29.428Z,185.63
2023-12-24T12:15:29.336Z,185.86
2023-12-24T12:16:29.353Z,185.54
2023-12-24T12:17:29.490Z,185.98
2023-12-24T12:18:29.346Z,186.25
2023-12-24T12:19:31.074Z,186.81
2023-12-24T12:20:29.298Z,186.36
2023-12-24T12:21:29.269Z,186.32
2023-12-24T12:22:30.030Z,186.51
2023-12-24T12:23:29.252Z,186.50
2023-12-24T12:24:29.218Z,185.45
2023-12-24T12:25:29.315Z,185.14
2023-12-24T12:26:29.264Z,185.36
2023-12-24T12:27:30.016Z,185.92
2023-12-24T12:28:29.192Z,186.09
2023-12-24T12:29:30.017Z,186.21
2023-12-24T12:30:33.286Z,185.73
2023-12-24T12:31:29.559Z,186.87
2023-12-24T12:32:31.126Z,186.13
2023-12-24T12:33:31.125Z,186.44
2023-12-24T12:34:29.289Z,186.91
2023-12-24T12:35:29.156Z,186.42
2023-12-24T12:36:29.088Z,186.21
2023-12-24T12:37:29.115Z,187.01
2023-12-24T12:38:30.165Z,186.48
2023-12-24T12:39:32.098Z,186.38
2023-12-24T12:40:36.101Z,185.67
2023-12-24T12:41:30.070Z,186.05
2023-12-24T12:42:35.809Z,185.76
2023-12-24T12:43:30.024Z,186.85
2023-12-24T12:44:29.098Z,185.82
2023-12-24T12:45:30.037Z,185.13
2023-12-24T12:46:28.986Z,185.92
2023-12-24T12:47:29.034Z,185.22
2023-12-24T12:48:29.116Z,184.85
2023-12-24T12:49:29.783Z,182.98
2023-12-24T12:50:30.911Z,182.54
2023-12-24T12:51:29.476Z,179.79
2023-12-24T12:52:29.603Z,176.44
2023-12-24T12:53:28.936Z,173.40
2023-12-24T12:54:28.986Z,171.07
2023-12-24T12:55:28.886Z,169.57
2023-12-24T12:56:28.918Z,167.48
2023-12-24T12:57:28.828Z,166.12
2023-12-24T12:58:28.898Z,163.18
2023-12-24T12:59:31.663Z,162.57
2023-12-24T13:00:28.825Z,161.30
2023-12-24T13:01:28.811Z,158.86
2023-12-24T13:02:28.885Z,159.09